createdAt,value
2023-02-09T00:01:31.716Z,103.85
2023-02-09T00:04:00.052Z,110.35
2023-02-09T00:06:30.055Z,102.00
2023-02-09T00:09:01.273Z,103.57
2023-02-09T00:11:49.842Z,101.83
2023-02-09T00:14:21.910Z,103.72
2023-02-09T00:16:50.816Z,99.55
2023-02-09T00:19:21.637Z,107.82
2023-02-09T00:21:49.500Z,101.68
2023-02-09T00:24:16.954Z,94.05
2023-02-09T00:26:47.244Z,94.85
2023-02-09T00:29:14.898Z,107.97
2023-02-09T00:31:42.560Z,94.72
2023-02-09T00:34:10.713Z,105.30
2023-02-09T00:36:37.893Z,98.32
2023-02-09T00:39:05.109Z,111.53
2023-02-09T00:41:51.525Z,111.53
2023-02-09T00:44:18.671Z,99.00
2023-02-09T00:46:45.818Z,113.88
2023-02-09T00:49:13.112Z,99.78
2023-02-09T00:51:42.626Z,103.15
2023-02-09T00:54:10.401Z,112.78
2023-02-09T00:56:37.472Z,112.38
2023-02-09T00:59:04.846Z,105.82
2023-02-09T01:01:32.130Z,102.15
2023-02-09T01:03:59.333Z,102.03
2023-02-09T01:06:26.568Z,91.35
2023-02-09T01:08:54.861Z,113.95
2023-02-09T01:11:27.070Z,102.45
2023-02-09T01:13:58.063Z,101.20
2023-02-09T01:16:28.761Z,105.78
2023-02-09T01:18:56.586Z,100.10
2023-02-09T01:21:26.132Z,97.65
2023-02-09T01:23:53.519Z,101.32
2023-02-09T01:26:20.795Z,98.15
2023-02-09T01:28:55.538Z,97.07
2023-02-09T01:31:26.663Z,103.65
2023-02-09T01:33:56.293Z,100.70
2023-02-09T01:36:26.347Z,98.80
2023-02-09T01:38:58.851Z,99.70
2023-02-09T01:41:26.599Z,96.40
2023-02-09T01:44:11.755Z,99.93
2023-02-09T01:46:39.947Z,104.32
2023-02-09T01:49:09.919Z,98.32
2023-02-09T01:52:08.953Z,106.85
2023-02-09T01:54:46.373Z,96.38
2023-02-09T01:57:25.455Z,96.90
2023-02-09T02:00:03.736Z,103.93
2023-02-09T02:02:31.125Z,105.82
2023-02-09T02:04:58.922Z,94.32
2023-02-09T02:07:47.383Z,89.20
2023-02-09T02:10:15.001Z,93.40
2023-02-09T02:12:42.849Z,93.60
2023-02-09T02:15:10.255Z,91.05
2023-02-09T02:18:43.646Z,111.80
2023-02-09T02:21:31.762Z,94.05
2023-02-09T02:24:24.893Z,92.07
2023-02-09T02:27:32.483Z,94.03
2023-02-09T02:30:19.944Z,95.93
2023-02-09T02:33:12.071Z,97.55
2023-02-09T02:36:11.238Z,93.05
2023-02-09T02:39:11.188Z,105.30
2023-02-09T02:42:16.511Z,88.55
2023-02-09T02:44:56.532Z,88.20
2023-02-09T02:47:27.239Z,86.40
2023-02-09T02:50:02.092Z,107.95
2023-02-09T02:52:29.579Z,89.18
2023-02-09T02:55:15.266Z,100.15
2023-02-09T02:57:50.972Z,95.00
2023-02-09T03:00:30.699Z,93.68
2023-02-09T03:03:05.810Z,98.50
2023-02-09T03:05:39.110Z,97.95
2023-02-09T03:08:06.650Z,87.72
2023-02-09T03:10:38.375Z,95.18
2023-02-09T03:13:29.274Z,97.85
2023-02-09T03:16:13.250Z,94.18
2023-02-09T03:19:04.805Z,98.93
2023-02-09T03:21:45.407Z,103.17
2023-02-09T03:24:41.748Z,104.93
2023-02-09T03:27:35.460Z,101.78
2023-02-09T03:30:04.922Z,106.35
2023-02-09T03:32:36.559Z,117.30
2023-02-09T03:35:05.297Z,96.30
2023-02-09T03:37:32.470Z,94.70
2023-02-09T03:39:59.689Z,101.38
2023-02-09T03:42:26.994Z,93.63
2023-02-09T03:44:54.211Z,95.10
2023-02-09T03:47:21.375Z,94.05
2023-02-09T03:49:48.537Z,83.22
2023-02-09T03:52:17.540Z,95.57
2023-02-09T03:54:45.073Z,94.82
2023-02-09T03:57:12.324Z,89.28
2023-02-09T03:59:39.939Z,92.30
2023-02-09T04:02:10.746Z,95.50
2023-02-09T04:04:38.560Z,91.70
2023-02-09T04:07:08.130Z,86.57
2023-02-09T04:09:37.622Z,94.80
2023-02-09T04:12:05.393Z,88.88
2023-02-09T04:14:35.069Z,96.40
2023-02-09T04:17:05.370Z,99.85
2023-02-09T04:19:32.572Z,107.07
2023-02-09T04:22:01.267Z,103.43
2023-02-09T04:24:31.946Z,96.95
2023-02-09T04:26:59.235Z,101.57
2023-02-09T04:29:26.808Z,96.82
2023-02-09T04:31:54.119Z,96.72
2023-02-09T04:34:23.025Z,103.68
2023-02-09T04:36:51.229Z,109.80
2023-02-09T04:39:18.639Z,103.07
2023-02-09T04:41:45.914Z,99.43
2023-02-09T04:44:13.368Z,107.25
2023-02-09T04:46:40.630Z,104.20
2023-02-09T04:49:07.804Z,101.97
2023-02-09T04:51:34.982Z,96.03
2023-02-09T04:54:02.267Z,99.72
2023-02-09T04:56:31.459Z,105.07
2023-02-09T04:59:19.822Z,100.25
2023-02-09T05:01:47.122Z,102.95
2023-02-09T05:04:14.361Z,97.95
2023-02-09T05:06:44.044Z,101.25
2023-02-09T05:09:11.320Z,107.50
2023-02-09T05:11:38.444Z,105.75
2023-02-09T05:14:05.690Z,132.02
2023-02-09T05:16:32.906Z,105.35
2023-02-09T05:19:00.093Z,112.75
2023-02-09T05:21:27.309Z,104.63
2023-02-09T05:23:54.446Z,114.13
2023-02-09T05:26:21.595Z,108.70
2023-02-09T05:28:48.863Z,114.53
2023-02-09T05:31:19.104Z,123.32
2023-02-09T05:33:46.462Z,160.27
2023-02-09T05:36:14.869Z,151.65
2023-02-09T05:38:42.087Z,123.28
2023-02-09T05:41:32.511Z,142.00
2023-02-09T05:44:02.103Z,146.18
2023-02-09T05:46:29.294Z,135.00
2023-02-09T05:48:56.520Z,157.35
2023-02-09T05:51:23.732Z,322.60
2023-02-09T05:53:54.024Z,328.95
2023-02-09T05:56:22.706Z,328.05
2023-02-09T05:58:49.848Z,327.50
2023-02-09T06:01:17.131Z,322.40
2023-02-09T06:03:44.694Z,256.00
2023-02-09T06:06:11.931Z,184.93
2023-02-09T06:08:39.415Z,241.65
2023-02-09T06:11:06.718Z,190.02
2023-02-09T06:13:33.960Z,197.65
2023-02-09T06:16:01.339Z,189.60
2023-02-09T06:18:28.569Z,178.48
2023-02-09T06:20:55.790Z,181.35
2023-02-09T06:23:23.046Z,194.30
2023-02-09T06:25:53.242Z,186.18
2023-02-09T06:28:21.155Z,182.95
2023-02-09T06:30:53.468Z,188.65
2023-02-09T06:33:22.925Z,190.63
2023-02-09T06:35:52.280Z,189.35
2023-02-09T06:38:19.982Z,195.82
2023-02-09T06:40:48.059Z,190.18
2023-02-09T06:43:15.952Z,218.80
2023-02-09T06:45:46.071Z,266.85
2023-02-09T06:48:13.664Z,280.85
2023-02-09T06:50:41.112Z,274.15
2023-02-09T06:53:08.320Z,242.70
2023-02-09T06:55:36.094Z,202.65
2023-02-09T06:58:04.085Z,197.68
2023-02-09T07:00:34.310Z,172.40
2023-02-09T07:03:01.730Z,171.65
2023-02-09T07:05:29.237Z,175.27
2023-02-09T07:07:56.943Z,190.82
2023-02-09T07:10:24.313Z,166.50
2023-02-09T07:12:51.725Z,154.57
2023-02-09T07:15:19.193Z,181.00
2023-02-09T07:17:48.356Z,175.18
2023-02-09T07:20:15.593Z,161.88
2023-02-09T07:22:42.867Z,158.95
2023-02-09T07:25:14.988Z,139.57
2023-02-09T07:30:13.365Z,128.77
2023-02-09T07:32:42.281Z,120.60
2023-02-09T07:35:09.391Z,113.75
2023-02-09T07:37:38.799Z,110.40
2023-02-09T07:40:07.534Z,114.55
2023-02-09T07:42:34.751Z,102.35
2023-02-09T07:45:01.896Z,106.22
2023-02-09T07:47:29.163Z,102.63
2023-02-09T07:49:56.343Z,105.05
2023-02-09T07:52:23.470Z,99.68
2023-02-09T07:54:51.920Z,101.10
2023-02-09T07:57:19.172Z,100.57
2023-02-09T07:59:46.478Z,103.50
2023-02-09T08:02:26.677Z,111.18
2023-02-09T08:04:57.611Z,107.80
2023-02-09T08:07:26.050Z,104.65
2023-02-09T08:09:53.257Z,103.88
2023-02-09T08:12:44.794Z,96.53
2023-02-09T08:15:15.408Z,103.68
2023-02-09T08:17:45.175Z,94.72
2023-02-09T08:20:22.123Z,102.95
2023-02-09T08:22:54.761Z,109.32
2023-02-09T08:25:25.580Z,109.63
2023-02-09T08:27:53.829Z,111.95
2023-02-09T08:30:21.213Z,104.78
2023-02-09T08:32:50.761Z,104.28
2023-02-09T08:35:18.009Z,96.95
2023-02-09T08:37:45.334Z,89.55
2023-02-09T08:40:14.950Z,93.78
2023-02-09T08:42:42.434Z,90.18
2023-02-09T08:45:10.079Z,91.70
2023-02-09T08:47:38.128Z,88.28
2023-02-09T08:50:08.586Z,91.18
2023-02-09T08:52:38.323Z,86.25
2023-02-09T08:55:05.776Z,85.38
2023-02-09T08:57:43.476Z,85.10
2023-02-09T09:00:12.755Z,84.72
2023-02-09T09:02:40.331Z,77.95
2023-02-09T09:05:07.896Z,75.15
2023-02-09T09:07:37.554Z,80.60
2023-02-09T09:10:08.858Z,79.00
2023-02-09T09:12:36.284Z,75.13
2023-02-09T09:15:04.755Z,81.15
2023-02-09T09:17:32.090Z,88.10
2023-02-09T09:19:59.500Z,76.82
2023-02-09T09:22:29.102Z,76.80
2023-02-09T09:24:56.364Z,79.30
2023-02-09T09:27:25.995Z,82.25
2023-02-09T09:29:57.595Z,76.68
2023-02-09T09:32:25.421Z,76.63
2023-02-09T09:34:58.952Z,76.88
2023-02-09T09:37:27.032Z,73.88
2023-02-09T09:39:54.216Z,76.90
2023-02-09T09:42:33.739Z,68.80
2023-02-09T09:45:01.521Z,72.47
2023-02-09T09:47:42.295Z,72.97
2023-02-09T09:50:33.016Z,71.85
2023-02-09T09:53:33.531Z,71.68
2023-02-09T09:56:09.335Z,72.63
2023-02-09T09:58:42.750Z,68.82
2023-02-09T10:01:15.660Z,79.57
2023-02-09T10:03:43.702Z,73.43
2023-02-09T10:06:22.869Z,70.57
2023-02-09T10:09:12.349Z,66.70
2023-02-09T10:11:48.828Z,66.22
2023-02-09T10:14:16.131Z,64.22
2023-02-09T10:16:45.440Z,67.28
2023-02-09T10:19:29.272Z,69.30
2023-02-09T10:21:58.821Z,61.80
2023-02-09T10:24:33.600Z,58.22
2023-02-09T10:27:31.219Z,61.90
2023-02-09T10:30:28.667Z,70.35
2023-02-09T10:33:00.501Z,63.78
2023-02-09T10:35:41.997Z,60.05
2023-02-09T10:38:19.310Z,57.60
2023-02-09T10:40:50.152Z,57.10
2023-02-09T10:43:24.309Z,60.05
2023-02-09T10:46:01.053Z,55.05
2023-02-09T10:48:39.454Z,59.75
2023-02-09T10:51:15.500Z,59.88
2023-02-09T10:54:04.899Z,64.18
2023-02-09T10:56:49.707Z,75.00
2023-02-09T10:59:23.337Z,74.43
2023-02-09T11:02:01.164Z,71.43
2023-02-09T11:04:40.141Z,65.30
2023-02-09T11:07:14.651Z,65.85
2023-02-09T11:09:47.743Z,66.82
2023-02-09T11:12:15.085Z,70.35
2023-02-09T11:14:46.100Z,62.38
2023-02-09T11:17:22.790Z,66.72
2023-02-09T11:20:04.994Z,64.90
2023-02-09T11:22:50.123Z,61.20
2023-02-09T11:25:45.496Z,61.53
2023-02-09T11:28:33.786Z,64.03
2023-02-09T11:31:00.859Z,63.35
2023-02-09T11:34:08.324Z,64.88
2023-02-09T11:37:04.517Z,74.05
2023-02-09T11:40:02.777Z,74.80
2023-02-09T11:42:45.835Z,77.97
2023-02-09T11:45:35.240Z,67.70
2023-02-09T11:48:23.142Z,69.03
2023-02-09T11:50:59.299Z,69.53
2023-02-09T11:54:16.466Z,76.68
2023-02-09T11:56:50.402Z,73.78
2023-02-09T11:59:36.784Z,74.93
2023-02-09T12:02:23.855Z,77.47
2023-02-09T12:04:55.022Z,73.60
2023-02-09T12:07:54.117Z,75.30
2023-02-09T12:10:29.949Z,78.93
2023-02-09T12:13:39.348Z,88.30
2023-02-09T12:16:21.347Z,81.32
2023-02-09T12:18:48.784Z,81.28
2023-02-09T12:21:33.235Z,68.78
2023-02-09T12:24:01.981Z,71.65
2023-02-09T12:26:43.674Z,71.18
2023-02-09T12:29:41.137Z,65.18
2023-02-09T12:32:08.390Z,72.13
2023-02-09T12:34:39.203Z,65.32
2023-02-09T12:37:16.934Z,59.15
2023-02-09T12:40:07.907Z,59.85
2023-02-09T12:42:55.781Z,54.58
2023-02-09T12:45:43.174Z,61.85
2023-02-09T12:48:10.347Z,64.43
2023-02-09T12:50:43.524Z,58.05
2023-02-09T12:53:26.418Z,51.00
2023-02-09T12:56:11.321Z,43.75
2023-02-09T12:58:44.350Z,52.03
2023-02-09T13:01:14.098Z,49.83
2023-02-09T13:03:49.254Z,48.90
2023-02-09T13:06:49.110Z,53.95
2023-02-09T13:09:39.140Z,48.97
2023-02-09T13:12:15.177Z,50.42
2023-02-09T13:14:50.477Z,45.65
2023-02-09T13:17:36.871Z,46.00
2023-02-09T13:20:30.341Z,41.92
2023-02-09T13:23:16.527Z,46.40
2023-02-09T13:25:44.373Z,45.65
2023-02-09T13:28:26.649Z,43.13
2023-02-09T13:30:54.366Z,34.78
2023-02-09T13:34:03.055Z,42.78
2023-02-09T13:36:32.838Z,43.65
2023-02-09T13:39:00.151Z,44.08
2023-02-09T13:41:40.662Z,43.22
2023-02-09T13:44:30.281Z,42.67
2023-02-09T13:47:00.971Z,47.88
2023-02-09T13:49:30.525Z,48.38
2023-02-09T13:52:17.177Z,50.47
2023-02-09T13:54:44.565Z,50.03
2023-02-09T13:57:32.360Z,49.47
2023-02-09T14:00:27.237Z,58.00
2023-02-09T14:03:03.710Z,56.47
2023-02-09T14:05:41.561Z,54.08
2023-02-09T14:08:11.382Z,54.90
2023-02-09T14:10:44.923Z,62.15
2023-02-09T14:13:26.783Z,64.18
2023-02-09T14:16:09.191Z,60.63
2023-02-09T14:21:40.495Z,56.92
2023-02-09T14:24:27.935Z,43.67
2023-02-09T14:27:15.827Z,58.00
2023-02-09T14:29:47.771Z,57.33
2023-02-09T14:32:35.401Z,54.35
2023-02-09T14:35:25.386Z,56.88
2023-02-09T14:37:56.082Z,50.13
2023-02-09T14:40:27.977Z,50.13
2023-02-09T14:43:11.083Z,57.67
2023-02-09T14:45:45.578Z,49.58
2023-02-09T14:48:27.586Z,49.92
2023-02-09T14:51:03.257Z,53.72
2023-02-09T14:53:33.105Z,52.72
2023-02-09T14:56:02.706Z,47.85
2023-02-09T14:58:32.410Z,53.70
2023-02-09T15:01:02.872Z,55.03
2023-02-09T15:03:30.219Z,53.72
2023-02-09T15:06:02.941Z,57.92
2023-02-09T15:08:37.027Z,62.20
2023-02-09T15:11:26.428Z,60.97
2023-02-09T15:14:03.984Z,65.75
2023-02-09T15:16:43.181Z,66.50
2023-02-09T15:19:19.536Z,55.20
2023-02-09T15:21:58.730Z,54.85
2023-02-09T15:24:32.718Z,56.22
2023-02-09T15:26:59.833Z,53.65
2023-02-09T15:29:27.304Z,62.83
2023-02-09T15:31:55.347Z,54.55
2023-02-09T15:34:22.497Z,64.10
2023-02-09T15:36:49.727Z,59.72
2023-02-09T15:39:25.238Z,68.57
2023-02-09T15:42:11.193Z,65.32
2023-02-09T15:44:57.115Z,70.80
2023-02-09T15:47:43.073Z,75.80
2023-02-09T15:50:10.357Z,77.75
2023-02-09T15:52:37.773Z,75.40
2023-02-09T15:55:05.702Z,73.60
2023-02-09T15:57:32.980Z,71.22
2023-02-09T16:00:02.770Z,72.35
2023-02-09T16:02:29.959Z,72.03
2023-02-09T16:04:57.054Z,71.45
2023-02-09T16:07:27.299Z,75.50
2023-02-09T16:09:54.479Z,74.45
2023-02-09T16:12:21.539Z,67.40
2023-02-09T16:14:48.613Z,72.25
2023-02-09T16:17:15.820Z,71.35
2023-02-09T16:19:43.902Z,64.55
2023-02-09T16:22:13.704Z,75.22
2023-02-09T16:24:45.834Z,86.72
2023-02-09T16:27:28.371Z,92.70
2023-02-09T16:29:57.885Z,93.95
2023-02-09T16:32:28.838Z,90.95
2023-02-09T16:35:04.534Z,95.30
2023-02-09T16:37:38.436Z,88.13
2023-02-09T16:40:33.346Z,103.43
2023-02-09T16:43:01.903Z,92.43
2023-02-09T16:45:37.217Z,90.13
2023-02-09T16:48:04.919Z,93.13
2023-02-09T16:50:39.997Z,89.93
2023-02-09T16:53:37.124Z,89.25
2023-02-09T16:56:10.337Z,83.13
2023-02-09T16:58:40.121Z,84.20
2023-02-09T17:01:20.891Z,86.22
2023-02-09T17:03:52.316Z,86.90
2023-02-09T17:06:23.580Z,88.30
2023-02-09T17:08:51.320Z,87.80
2023-02-09T17:11:23.654Z,82.78
2023-02-09T17:13:51.273Z,93.80
2023-02-09T17:16:27.482Z,88.28
2023-02-09T17:18:58.934Z,89.22
2023-02-09T17:21:35.310Z,95.70
2023-02-09T17:24:06.804Z,100.53
2023-02-09T17:26:37.750Z,99.68
2023-02-09T17:29:04.877Z,117.00
2023-02-09T17:31:47.025Z,110.13
2023-02-09T17:34:18.274Z,104.70
2023-02-09T17:36:45.387Z,97.45
2023-02-09T17:39:14.054Z,99.60
2023-02-09T17:41:46.601Z,88.22
2023-02-09T17:44:43.640Z,92.38
2023-02-09T17:47:20.695Z,86.40
2023-02-09T17:49:47.929Z,92.80
2023-02-09T17:52:19.960Z,98.18
2023-02-09T17:54:47.821Z,101.07
2023-02-09T17:57:17.155Z,88.20
2023-02-09T17:59:44.301Z,92.68
2023-02-09T18:02:17.949Z,92.60
2023-02-09T18:04:47.990Z,109.28
2023-02-09T18:07:20.519Z,115.75
2023-02-09T18:09:50.484Z,112.55
2023-02-09T18:12:26.559Z,109.15
2023-02-09T18:14:54.202Z,88.93
2023-02-09T18:17:21.250Z,82.53
2023-02-09T18:19:48.364Z,83.47
2023-02-09T18:22:20.174Z,88.28
2023-02-09T18:24:50.135Z,97.20
2023-02-09T18:27:23.124Z,103.57
2023-02-09T18:29:50.650Z,105.47
2023-02-09T18:32:21.143Z,109.43
2023-02-09T18:34:50.988Z,93.60
2023-02-09T18:37:18.179Z,105.85
2023-02-09T18:39:46.917Z,96.97
2023-02-09T18:42:19.367Z,94.13
2023-02-09T18:44:48.912Z,108.68
2023-02-09T18:47:18.524Z,108.90
2023-02-09T18:49:45.689Z,96.65
2023-02-09T18:52:17.162Z,87.95
2023-02-09T18:54:44.578Z,88.20
2023-02-09T18:57:13.272Z,93.53
2023-02-09T18:59:40.881Z,88.90
2023-02-09T19:02:11.232Z,86.28
2023-02-09T19:04:38.631Z,75.00
2023-02-09T19:07:09.454Z,72.18
2023-02-09T19:09:39.212Z,73.25
2023-02-09T19:12:07.163Z,77.30
2023-02-09T19:14:40.548Z,66.30
2023-02-09T19:17:13.461Z,69.63
2023-02-09T19:19:40.879Z,67.47
2023-02-09T19:22:13.588Z,70.90
2023-02-09T19:24:43.206Z,71.78
2023-02-09T19:27:16.978Z,86.18
2023-02-09T19:29:45.512Z,84.57
2023-02-09T19:32:14.962Z,79.75
2023-02-09T19:34:43.245Z,74.97
2023-02-09T19:37:12.395Z,78.57
2023-02-09T19:39:41.596Z,70.15
2023-02-09T19:42:08.983Z,65.10
2023-02-09T19:44:36.478Z,58.58
2023-02-09T19:47:03.601Z,60.60
2023-02-09T19:49:32.829Z,54.15
2023-02-09T19:52:01.365Z,61.17
2023-02-09T19:54:28.473Z,53.38
2023-02-09T19:56:55.610Z,59.33
2023-02-09T19:59:22.790Z,56.17
2023-02-09T20:01:50.248Z,53.70
2023-02-09T20:04:17.412Z,58.63
2023-02-09T20:06:46.933Z,50.78
2023-02-09T20:09:14.119Z,54.97
2023-02-09T20:11:43.730Z,52.30
2023-02-09T20:14:10.935Z,62.03
2023-02-09T20:16:38.567Z,69.78
2023-02-09T20:19:08.128Z,63.03
2023-02-09T20:21:37.547Z,69.40
2023-02-09T20:24:09.567Z,71.55
2023-02-09T20:26:36.860Z,74.82
2023-02-09T20:29:08.250Z,77.82
2023-02-09T20:31:38.187Z,74.07
2023-02-09T20:34:07.799Z,64.47
2023-02-09T20:36:38.525Z,67.38
2023-02-09T20:39:10.125Z,72.90
2023-02-09T20:41:59.694Z,64.78
2023-02-09T20:44:45.671Z,65.20
2023-02-09T20:47:13.020Z,58.33
2023-02-09T20:49:40.698Z,63.72
2023-02-09T20:52:08.973Z,68.18
2023-02-09T20:54:45.200Z,56.17
2023-02-09T20:57:12.483Z,56.05
2023-02-09T20:59:40.040Z,53.70
2023-02-09T21:02:07.331Z,53.65
2023-02-09T21:04:36.664Z,55.33
2023-02-09T21:07:04.550Z,58.60
2023-02-09T21:09:31.697Z,47.80
2023-02-09T21:11:58.868Z,49.65
2023-02-09T21:14:32.246Z,49.83
2023-02-09T21:17:06.395Z,49.22
2023-02-09T21:19:40.030Z,48.30
2023-02-09T21:22:07.808Z,45.67
2023-02-09T21:24:37.046Z,42.97
2023-02-09T21:27:06.854Z,42.15
2023-02-09T21:29:37.875Z,40.75
2023-02-09T21:32:07.499Z,40.47
2023-02-09T21:34:37.722Z,46.13
2023-02-09T21:37:10.251Z,40.95
2023-02-09T21:39:43.318Z,43.25
2023-02-09T21:42:28.853Z,41.28
2023-02-09T21:44:57.175Z,46.17
2023-02-09T21:47:34.894Z,42.13
2023-02-09T21:50:02.331Z,47.13
2023-02-09T21:52:30.130Z,45.97
2023-02-09T21:54:57.755Z,51.47
2023-02-09T21:57:26.143Z,47.13
2023-02-09T21:59:56.194Z,46.88
2023-02-09T22:02:27.498Z,54.50
2023-02-09T22:04:54.801Z,48.13
2023-02-09T22:07:22.125Z,43.85
2023-02-09T22:09:51.516Z,51.13
2023-02-09T22:12:18.777Z,41.47
2023-02-09T22:14:46.091Z,49.70
2023-02-09T22:17:15.673Z,46.70
2023-02-09T22:19:42.835Z,48.45
2023-02-09T22:22:10.737Z,47.40
2023-02-09T22:24:38.208Z,45.85
2023-02-09T22:27:05.389Z,43.08
2023-02-09T22:29:34.966Z,46.75
2023-02-09T22:32:02.496Z,44.13
2023-02-09T22:34:29.679Z,41.03
2023-02-09T22:36:56.771Z,38.47
2023-02-09T22:39:23.969Z,38.85
2023-02-09T22:41:52.415Z,43.15
2023-02-09T22:44:19.663Z,37.42
2023-02-09T22:46:47.047Z,39.97
2023-02-09T22:49:20.613Z,41.00
2023-02-09T22:51:49.440Z,37.88
2023-02-09T22:54:19.973Z,39.00
2023-02-09T22:56:47.293Z,39.42
2023-02-09T22:59:15.862Z,44.78
2023-02-09T23:01:44.165Z,37.90
2023-02-09T23:04:11.905Z,40.80
2023-02-09T23:06:39.361Z,38.70
2023-02-09T23:09:08.176Z,40.38
2023-02-09T23:11:36.608Z,36.25
2023-02-09T23:14:09.988Z,39.35
2023-02-09T23:16:39.988Z,39.17
2023-02-09T23:19:13.086Z,35.55
2023-02-09T23:21:46.323Z,38.03
2023-02-09T23:24:16.795Z,41.38
2023-02-09T23:26:45.039Z,37.08
2023-02-09T23:29:15.487Z,36.58
2023-02-09T23:31:44.154Z,37.75
2023-02-09T23:34:21.158Z,37.45
2023-02-09T23:36:48.842Z,38.05
2023-02-09T23:39:21.284Z,32.97
2023-02-09T23:41:48.739Z,40.20
2023-02-09T23:44:16.007Z,39.42
2023-02-09T23:46:43.247Z,39.70
2023-02-09T23:49:11.639Z,38.65
2023-02-09T23:51:38.779Z,33.50
2023-02-09T23:54:07.632Z,35.88
2023-02-09T23:56:38.223Z,39.10
2023-02-09T23:59:08.382Z,32.13
